sensor_id;sensor_type;location;lat;lon;timestamp;P1;durP1;ratioP1;P2;durP2;ratioP2
15340;SDS011;7770;52.158;5.372;2023-04-01T00:01:06;24.50;;;17.20;;
15340;SDS011;7770;52.158;5.372;2023-04-01T00:03:52;28.27;;;17.10;;
15340;SDS011;7770;52.158;5.372;2023-04-01T00:06:41;26.10;;;16.97;;
15340;SDS011;7770;52.158;5.372;2023-04-01T00:09:27;30.67;;;18.63;;
15340;SDS011;7770;52.158;5.372;2023-04-01T00:12:13;28.77;;;17.83;;
15340;SDS011;7770;52.158;5.372;2023-04-01T00:14:59;30.53;;;18.17;;
15340;SDS011;7770;52.158;5.372;2023-04-01T00:17:47;34.10;;;17.43;;
15340;SDS011;7770;52.158;5.372;2023-04-01T00:20:36;31.53;;;17.03;;
15340;SDS011;7770;52.158;5.372;2023-04-01T00:23:22;28.07;;;18.30;;
15340;SDS011;7770;52.158;5.372;2023-04-01T00:26:08;31.30;;;18.97;;
15340;SDS011;7770;52.158;5.372;2023-04-01T00:28:54;34.53;;;18.77;;
15340;SDS011;7770;52.158;5.372;2023-04-01T00:31:44;33.70;;;19.40;;
15340;SDS011;7770;52.158;5.372;2023-04-01T00:34:30;28.30;;;18.83;;
15340;SDS011;7770;52.158;5.372;2023-04-01T00:37:16;32.23;;;18.70;;
15340;SDS011;7770;52.158;5.372;2023-04-01T00:40:03;31.47;;;18.23;;
15340;SDS011;7770;52.158;5.372;2023-04-01T00:42:54;32.07;;;16.57;;
15340;SDS011;7770;52.158;5.372;2023-04-01T00:45:42;26.53;;;15.67;;
15340;SDS011;7770;52.158;5.372;2023-04-01T00:48:31;28.80;;;14.90;;
15340;SDS011;7770;52.158;5.372;2023-04-01T00:51:22;27.83;;;14.67;;
15340;SDS011;7770;52.158;5.372;2023-04-01T00:54:11;25.70;;;14.77;;
15340;SDS011;7770;52.158;5.372;2023-04-01T00:57:02;27.27;;;14.60;;
15340;SDS011;7770;52.158;5.372;2023-04-01T00:59:58;23.63;;;15.40;;
15340;SDS011;7770;52.158;5.372;2023-04-01T01:02:45;30.23;;;15.67;;
15340;SDS011;7770;52.158;5.372;2023-04-01T01:05:47;28.20;;;15.33;;
15340;SDS011;7770;52.158;5.372;2023-04-01T01:12:50;23.60;;;14.90;;
15340;SDS011;7770;52.158;5.372;2023-04-01T01:16:04;23.37;;;14.60;;
15340;SDS011;7770;52.158;5.372;2023-04-01T01:19:06;26.80;;;13.57;;
15340;SDS011;7770;52.158;5.372;2023-04-01T01:33:12;15.87;;;9.97;;
15340;SDS011;7770;52.158;5.372;2023-04-01T01:36:21;17.43;;;9.90;;
15340;SDS011;7770;52.158;5.372;2023-04-01T01:39:07;12.60;;;8.83;;
15340;SDS011;7770;52.158;5.372;2023-04-01T01:42:01;15.00;;;8.90;;
15340;SDS011;7770;52.158;5.372;2023-04-01T01:44:53;11.57;;;8.30;;
15340;SDS011;7770;52.158;5.372;2023-04-01T01:47:42;13.93;;;9.00;;
15340;SDS011;7770;52.158;5.372;2023-04-01T01:50:29;14.93;;;8.37;;
15340;SDS011;7770;52.158;5.372;2023-04-01T01:53:15;12.73;;;8.43;;
15340;SDS011;7770;52.158;5.372;2023-04-01T01:56:02;10.87;;;7.60;;
15340;SDS011;7770;52.158;5.372;2023-04-01T01:58:49;11.03;;;7.87;;
15340;SDS011;7770;52.158;5.372;2023-04-01T02:01:58;9.07;;;7.20;;
15340;SDS011;7770;52.158;5.372;2023-04-01T02:04:46;8.70;;;7.30;;
15340;SDS011;7770;52.158;5.372;2023-04-01T02:07:33;10.23;;;7.20;;
15340;SDS011;7770;52.158;5.372;2023-04-01T02:10:22;8.37;;;6.57;;
15340;SDS011;7770;52.158;5.372;2023-04-01T02:13:16;11.33;;;6.80;;
15340;SDS011;7770;52.158;5.372;2023-04-01T02:16:38;10.17;;;7.10;;
15340;SDS011;7770;52.158;5.372;2023-04-01T02:19:34;10.17;;;7.30;;
15340;SDS011;7770;52.158;5.372;2023-04-01T02:22:49;11.23;;;7.13;;
15340;SDS011;7770;52.158;5.372;2023-04-01T02:25:40;7.27;;;5.90;;
15340;SDS011;7770;52.158;5.372;2023-04-01T02:28:28;7.93;;;6.80;;
15340;SDS011;7770;52.158;5.372;2023-04-01T02:31:17;12.50;;;6.87;;
15340;SDS011;7770;52.158;5.372;2023-04-01T02:34:03;11.40;;;7.77;;
15340;SDS011;7770;52.158;5.372;2023-04-01T02:36:50;10.07;;;7.17;;
15340;SDS011;7770;52.158;5.372;2023-04-01T02:39:37;13.63;;;8.57;;
15340;SDS011;7770;52.158;5.372;2023-04-01T02:42:30;10.03;;;7.90;;
15340;SDS011;7770;52.158;5.372;2023-04-01T02:45:16;12.63;;;8.27;;
15340;SDS011;7770;52.158;5.372;2023-04-01T02:48:02;12.63;;;7.80;;
15340;SDS011;7770;52.158;5.372;2023-04-01T02:50:48;11.33;;;8.10;;
15340;SDS011;7770;52.158;5.372;2023-04-01T02:53:35;11.33;;;7.67;;
15340;SDS011;7770;52.158;5.372;2023-04-01T02:56:21;12.47;;;7.80;;
15340;SDS011;7770;52.158;5.372;2023-04-01T02:59:07;11.03;;;7.00;;
15340;SDS011;7770;52.158;5.372;2023-04-01T03:01:53;13.10;;;6.80;;
15340;SDS011;7770;52.158;5.372;2023-04-01T03:04:39;8.73;;;5.97;;
15340;SDS011;7770;52.158;5.372;2023-04-01T03:07:25;8.27;;;6.27;;
15340;SDS011;7770;52.158;5.372;2023-04-01T03:10:13;7.70;;;6.30;;
15340;SDS011;7770;52.158;5.372;2023-04-01T03:12:59;8.40;;;6.17;;
15340;SDS011;7770;52.158;5.372;2023-04-01T03:15:45;9.53;;;6.63;;
15340;SDS011;7770;52.158;5.372;2023-04-01T03:18:31;10.63;;;7.00;;
15340;SDS011;7770;52.158;5.372;2023-04-01T03:21:19;10.73;;;6.97;;
15340;SDS011;7770;52.158;5.372;2023-04-01T03:24:07;11.47;;;8.33;;
15340;SDS011;7770;52.158;5.372;2023-04-01T03:26:57;12.73;;;9.80;;
15340;SDS011;7770;52.158;5.372;2023-04-01T03:29:43;16.67;;;11.47;;
15340;SDS011;7770;52.158;5.372;2023-04-01T03:32:30;20.60;;;13.00;;
15340;SDS011;7770;52.158;5.372;2023-04-01T03:35:17;19.90;;;14.60;;
15340;SDS011;7770;52.158;5.372;2023-04-01T03:38:04;22.10;;;16.23;;
15340;SDS011;7770;52.158;5.372;2023-04-01T03:40:50;26.83;;;17.73;;
15340;SDS011;7770;52.158;5.372;2023-04-01T03:43:36;27.30;;;19.37;;
15340;SDS011;7770;52.158;5.372;2023-04-01T03:46:22;32.57;;;21.13;;
15340;SDS011;7770;52.158;5.372;2023-04-01T03:49:09;31.53;;;21.77;;
15340;SDS011;7770;52.158;5.372;2023-04-01T03:51:57;34.63;;;23.50;;
15340;SDS011;7770;52.158;5.372;2023-04-01T03:54:45;37.93;;;24.10;;
15340;SDS011;7770;52.158;5.372;2023-04-01T03:57:31;37.13;;;23.03;;
15340;SDS011;7770;52.158;5.372;2023-04-01T04:00:17;33.20;;;22.60;;
15340;SDS011;7770;52.158;5.372;2023-04-01T04:03:05;34.90;;;22.77;;
15340;SDS011;7770;52.158;5.372;2023-04-01T04:05:52;32.03;;;21.90;;
15340;SDS011;7770;52.158;5.372;2023-04-01T04:08:38;33.47;;;21.77;;
15340;SDS011;7770;52.158;5.372;2023-04-01T04:11:24;31.40;;;21.40;;
15340;SDS011;7770;52.158;5.372;2023-04-01T04:14:11;33.20;;;21.00;;
15340;SDS011;7770;52.158;5.372;2023-04-01T04:16:57;31.17;;;20.33;;
15340;SDS011;7770;52.158;5.372;2023-04-01T04:19:43;31.97;;;20.47;;
15340;SDS011;7770;52.158;5.372;2023-04-01T04:22:29;31.47;;;19.90;;
15340;SDS011;7770;52.158;5.372;2023-04-01T04:25:15;29.00;;;18.73;;
15340;SDS011;7770;52.158;5.372;2023-04-01T04:28:01;27.47;;;18.17;;
15340;SDS011;7770;52.158;5.372;2023-04-01T04:30:47;28.83;;;17.43;;
15340;SDS011;7770;52.158;5.372;2023-04-01T04:33:34;27.87;;;17.73;;
15340;SDS011;7770;52.158;5.372;2023-04-01T04:36:21;25.27;;;16.27;;
15340;SDS011;7770;52.158;5.372;2023-04-01T04:39:07;22.33;;;14.37;;
15340;SDS011;7770;52.158;5.372;2023-04-01T04:41:53;22.63;;;14.20;;
15340;SDS011;7770;52.158;5.372;2023-04-01T04:44:39;20.57;;;12.07;;
15340;SDS011;7770;52.158;5.372;2023-04-01T04:47:25;18.90;;;10.90;;
15340;SDS011;7770;52.158;5.372;2023-04-01T04:50:11;18.17;;;10.17;;
15340;SDS011;7770;52.158;5.372;2023-04-01T04:52:58;14.17;;;8.70;;
15340;SDS011;7770;52.158;5.372;2023-04-01T04:55:49;14.40;;;8.93;;
15340;SDS011;7770;52.158;5.372;2023-04-01T04:58:37;15.77;;;9.17;;
15340;SDS011;7770;52.158;5.372;2023-04-01T05:01:25;14.40;;;9.27;;
15340;SDS011;7770;52.158;5.372;2023-04-01T05:04:12;16.43;;;9.83;;
15340;SDS011;7770;52.158;5.372;2023-04-01T05:06:58;18.00;;;9.87;;
15340;SDS011;7770;52.158;5.372;2023-04-01T05:09:44;20.37;;;11.60;;
15340;SDS011;7770;52.158;5.372;2023-04-01T05:12:30;18.27;;;10.97;;
15340;SDS011;7770;52.158;5.372;2023-04-01T05:15:21;19.30;;;11.60;;
15340;SDS011;7770;52.158;5.372;2023-04-01T05:18:07;21.10;;;12.40;;
15340;SDS011;7770;52.158;5.372;2023-04-01T05:20:53;23.53;;;13.03;;
15340;SDS011;7770;52.158;5.372;2023-04-01T05:23:40;21.17;;;13.40;;
15340;SDS011;7770;52.158;5.372;2023-04-01T05:26:29;22.27;;;12.77;;
15340;SDS011;7770;52.158;5.372;2023-04-01T05:29:15;21.27;;;13.40;;
15340;SDS011;7770;52.158;5.372;2023-04-01T05:32:01;19.60;;;11.87;;
15340;SDS011;7770;52.158;5.372;2023-04-01T05:34:50;19.70;;;11.90;;
15340;SDS011;7770;52.158;5.372;2023-04-01T05:37:41;16.47;;;10.77;;
15340;SDS011;7770;52.158;5.372;2023-04-01T05:40:27;17.23;;;10.33;;
15340;SDS011;7770;52.158;5.372;2023-04-01T05:43:14;17.47;;;9.50;;
15340;SDS011;7770;52.158;5.372;2023-04-01T05:46:00;17.23;;;9.97;;
15340;SDS011;7770;52.158;5.372;2023-04-01T05:48:47;14.67;;;8.93;;
15340;SDS011;7770;52.158;5.372;2023-04-01T05:51:33;14.70;;;8.73;;
15340;SDS011;7770;52.158;5.372;2023-04-01T05:54:19;13.83;;;8.50;;
15340;SDS011;7770;52.158;5.372;2023-04-01T05:57:06;14.80;;;8.57;;
15340;SDS011;7770;52.158;5.372;2023-04-01T05:59:52;14.20;;;8.10;;
15340;SDS011;7770;52.158;5.372;2023-04-01T06:02:41;13.23;;;8.13;;
15340;SDS011;7770;52.158;5.372;2023-04-01T06:05:28;15.23;;;8.97;;
15340;SDS011;7770;52.158;5.372;2023-04-01T06:08:28;13.90;;;8.90;;
15340;SDS011;7770;52.158;5.372;2023-04-01T06:18:02;14.60;;;9.50;;
15340;SDS011;7770;52.158;5.372;2023-04-01T06:27:26;16.87;;;10.40;;
15340;SDS011;7770;52.158;5.372;2023-04-01T06:30:44;15.33;;;9.73;;
15340;SDS011;7770;52.158;5.372;2023-04-01T06:34:06;16.13;;;9.53;;
15340;SDS011;7770;52.158;5.372;2023-04-01T06:41:08;12.77;;;8.07;;
15340;SDS011;7770;52.158;5.372;2023-04-01T06:44:21;11.50;;;7.00;;
15340;SDS011;7770;52.158;5.372;2023-04-01T06:50:52;9.33;;;5.93;;
15340;SDS011;7770;52.158;5.372;2023-04-01T06:54:21;10.03;;;6.67;;
15340;SDS011;7770;52.158;5.372;2023-04-01T07:00:29;8.40;;;5.70;;
15340;SDS011;7770;52.158;5.372;2023-04-01T07:03:22;7.23;;;5.43;;
15340;SDS011;7770;52.158;5.372;2023-04-01T07:06:32;8.10;;;6.30;;
15340;SDS011;7770;52.158;5.372;2023-04-01T07:09:26;9.70;;;6.63;;
15340;SDS011;7770;52.158;5.372;2023-04-01T07:15:39;12.87;;;7.80;;
15340;SDS011;7770;52.158;5.372;2023-04-01T07:18:58;10.60;;;7.83;;
15340;SDS011;7770;52.158;5.372;2023-04-01T07:22:04;11.00;;;7.90;;
15340;SDS011;7770;52.158;5.372;2023-04-01T07:25:17;12.10;;;8.60;;
15340;SDS011;7770;52.158;5.372;2023-04-01T07:28:11;10.73;;;7.97;;
15340;SDS011;7770;52.158;5.372;2023-04-01T07:40:07;10.20;;;8.13;;
15340;SDS011;7770;52.158;5.372;2023-04-01T07:43:23;10.63;;;8.50;;
15340;SDS011;7770;52.158;5.372;2023-04-01T07:53:27;14.23;;;10.40;;
15340;SDS011;7770;52.158;5.372;2023-04-01T07:57:01;14.70;;;10.47;;
15340;SDS011;7770;52.158;5.372;2023-04-01T08:06:17;14.60;;;10.23;;
15340;SDS011;7770;52.158;5.372;2023-04-01T08:22:29;15.30;;;11.07;;
15340;SDS011;7770;52.158;5.372;2023-04-01T08:25:28;16.97;;;10.97;;
15340;SDS011;7770;52.158;5.372;2023-04-01T08:28:22;17.03;;;10.97;;
15340;SDS011;7770;52.158;5.372;2023-04-01T08:34:38;16.40;;;11.50;;
15340;SDS011;7770;52.158;5.372;2023-04-01T08:37:30;16.00;;;11.43;;
15340;SDS011;7770;52.158;5.372;2023-04-01T08:50:19;15.50;;;10.63;;
15340;SDS011;7770;52.158;5.372;2023-04-01T08:56:23;12.83;;;9.83;;
15340;SDS011;7770;52.158;5.372;2023-04-01T08:59:26;14.00;;;10.00;;
15340;SDS011;7770;52.158;5.372;2023-04-01T09:20:05;11.33;;;8.60;;
15340;SDS011;7770;52.158;5.372;2023-04-01T09:23:47;10.50;;;8.30;;
15340;SDS011;7770;52.158;5.372;2023-04-01T09:50:15;13.80;;;11.83;;
15340;SDS011;7770;52.158;5.372;2023-04-01T10:15:58;14.03;;;11.77;;
15340;SDS011;7770;52.158;5.372;2023-04-01T10:26:09;12.30;;;10.97;;
15340;SDS011;7770;52.158;5.372;2023-04-01T10:32:40;12.43;;;11.17;;
15340;SDS011;7770;52.158;5.372;2023-04-01T10:49:16;12.10;;;9.43;;
15340;SDS011;7770;52.158;5.372;2023-04-01T10:56:28;8.83;;;7.57;;
15340;SDS011;7770;52.158;5.372;2023-04-01T10:59:32;7.43;;;6.33;;
15340;SDS011;7770;52.158;5.372;2023-04-01T11:03:10;6.70;;;6.00;;
15340;SDS011;7770;52.158;5.372;2023-04-01T11:16:58;5.43;;;4.93;;
15340;SDS011;7770;52.158;5.372;2023-04-01T11:24:12;6.03;;;5.37;;
15340;SDS011;7770;52.158;5.372;2023-04-01T11:44:19;5.47;;;4.97;;
15340;SDS011;7770;52.158;5.372;2023-04-01T12:00:01;9.07;;;8.17;;
15340;SDS011;7770;52.158;5.372;2023-04-01T12:06:23;9.63;;;8.63;;
15340;SDS011;7770;52.158;5.372;2023-04-01T12:29:49;14.63;;;12.83;;
15340;SDS011;7770;52.158;5.372;2023-04-01T12:33:04;15.73;;;13.03;;
15340;SDS011;7770;52.158;5.372;2023-04-01T12:55:48;17.90;;;15.30;;
15340;SDS011;7770;52.158;5.372;2023-04-01T13:02:22;17.83;;;14.43;;
15340;SDS011;7770;52.158;5.372;2023-04-01T13:05:22;14.83;;;13.07;;
15340;SDS011;7770;52.158;5.372;2023-04-01T13:08:53;16.17;;;13.20;;
15340;SDS011;7770;52.158;5.372;2023-04-01T13:12:01;13.37;;;11.73;;
15340;SDS011;7770;52.158;5.372;2023-04-01T13:27:55;13.63;;;11.17;;
15340;SDS011;7770;52.158;5.372;2023-04-01T13:40:36;9.90;;;8.73;;
15340;SDS011;7770;52.158;5.372;2023-04-01T13:43:49;9.80;;;8.60;;
15340;SDS011;7770;52.158;5.372;2023-04-01T13:53:53;10.73;;;9.20;;
15340;SDS011;7770;52.158;5.372;2023-04-01T14:03:54;13.30;;;11.27;;
15340;SDS011;7770;52.158;5.372;2023-04-01T14:10:34;10.00;;;8.63;;
15340;SDS011;7770;52.158;5.372;2023-04-01T14:13:41;10.23;;;8.33;;
15340;SDS011;7770;52.158;5.372;2023-04-01T14:27:09;12.07;;;9.33;;
15340;SDS011;7770;52.158;5.372;2023-04-01T14:33:42;10.20;;;8.87;;
15340;SDS011;7770;52.158;5.372;2023-04-01T14:36:59;9.70;;;8.47;;
15340;SDS011;7770;52.158;5.372;2023-04-01T14:46:34;9.63;;;8.57;;
15340;SDS011;7770;52.158;5.372;2023-04-01T14:49:51;9.30;;;8.40;;
15340;SDS011;7770;52.158;5.372;2023-04-01T14:56:10;8.73;;;7.83;;
15340;SDS011;7770;52.158;5.372;2023-04-01T14:58:57;8.73;;;7.83;;
15340;SDS011;7770;52.158;5.372;2023-04-01T15:01:55;8.40;;;7.50;;
15340;SDS011;7770;52.158;5.372;2023-04-01T15:20:29;7.67;;;6.97;;
15340;SDS011;7770;52.158;5.372;2023-04-01T15:23:49;7.90;;;7.20;;
15340;SDS011;7770;52.158;5.372;2023-04-01T15:29:56;9.43;;;8.43;;
15340;SDS011;7770;52.158;5.372;2023-04-01T15:36:28;8.80;;;7.80;;
15340;SDS011;7770;52.158;5.372;2023-04-01T15:39:48;8.50;;;7.70;;
15340;SDS011;7770;52.158;5.372;2023-04-01T15:42:51;8.10;;;7.30;;
15340;SDS011;7770;52.158;5.372;2023-04-01T15:49:22;7.10;;;6.40;;
15340;SDS011;7770;52.158;5.372;2023-04-01T15:52:42;7.43;;;6.73;;
15340;SDS011;7770;52.158;5.372;2023-04-01T16:02:43;7.10;;;6.40;;
15340;SDS011;7770;52.158;5.372;2023-04-01T16:09:19;7.27;;;5.47;;
15340;SDS011;7770;52.158;5.372;2023-04-01T16:12:17;7.13;;;5.77;;
15340;SDS011;7770;52.158;5.372;2023-04-01T16:15:37;6.70;;;6.10;;
15340;SDS011;7770;52.158;5.372;2023-04-01T16:19:08;6.23;;;5.63;;
15340;SDS011;7770;52.158;5.372;2023-04-01T16:23:10;5.50;;;5.00;;
15340;SDS011;7770;52.158;5.372;2023-04-01T16:32:37;5.80;;;5.17;;
15340;SDS011;7770;52.158;5.372;2023-04-01T16:35:49;5.57;;;5.00;;
15340;SDS011;7770;52.158;5.372;2023-04-01T16:48:06;8.23;;;7.43;;
15340;SDS011;7770;52.158;5.372;2023-04-01T16:51:02;10.03;;;9.13;;
15340;SDS011;7770;52.158;5.372;2023-04-01T17:03:13;8.00;;;7.30;;
15340;SDS011;7770;52.158;5.372;2023-04-01T17:15:21;9.30;;;7.33;;
15340;SDS011;7770;52.158;5.372;2023-04-01T17:18:42;7.53;;;6.83;;
15340;SDS011;7770;52.158;5.372;2023-04-01T17:21:57;7.77;;;7.07;;
15340;SDS011;7770;52.158;5.372;2023-04-01T17:37:28;6.77;;;6.17;;
15340;SDS011;7770;52.158;5.372;2023-04-01T17:40:22;7.87;;;7.07;;
15340;SDS011;7770;52.158;5.372;2023-04-01T17:43:37;7.90;;;7.13;;
15340;SDS011;7770;52.158;5.372;2023-04-01T17:49:35;7.73;;;7.03;;
15340;SDS011;7770;52.158;5.372;2023-04-01T17:55:32;8.27;;;7.43;;
15340;SDS011;7770;52.158;5.372;2023-04-01T18:08:00;8.67;;;7.80;;
15340;SDS011;7770;52.158;5.372;2023-04-01T18:11:05;7.87;;;7.17;;
15340;SDS011;7770;52.158;5.372;2023-04-01T18:14:17;9.40;;;8.40;;
15340;SDS011;7770;52.158;5.372;2023-04-01T18:23:30;16.33;;;14.60;;
15340;SDS011;7770;52.158;5.372;2023-04-01T18:26:33;9.90;;;9.00;;
15340;SDS011;7770;52.158;5.372;2023-04-01T18:32:37;9.73;;;8.73;;
15340;SDS011;7770;52.158;5.372;2023-04-01T18:39:08;11.93;;;10.73;;
15340;SDS011;7770;52.158;5.372;2023-04-01T18:45:28;10.70;;;9.60;;
15340;SDS011;7770;52.158;5.372;2023-04-01T18:48:29;9.40;;;8.47;;
15340;SDS011;7770;52.158;5.372;2023-04-01T18:52:08;10.10;;;9.10;;
15340;SDS011;7770;52.158;5.372;2023-04-01T18:57:52;10.13;;;9.13;;
15340;SDS011;7770;52.158;5.372;2023-04-01T19:07:39;9.13;;;8.33;;
15340;SDS011;7770;52.158;5.372;2023-04-01T19:10:40;10.10;;;9.10;;
15340;SDS011;7770;52.158;5.372;2023-04-01T19:13:47;10.10;;;9.20;;
15340;SDS011;7770;52.158;5.372;2023-04-01T19:17:08;9.73;;;8.83;;
15340;SDS011;7770;52.158;5.372;2023-04-01T19:20:17;9.50;;;8.60;;
15340;SDS011;7770;52.158;5.372;2023-04-01T19:23:31;10.00;;;9.10;;
15340;SDS011;7770;52.158;5.372;2023-04-01T19:27:18;9.67;;;8.77;;
15340;SDS011;7770;52.158;5.372;2023-04-01T19:30:33;10.90;;;9.90;;
15340;SDS011;7770;52.158;5.372;2023-04-01T19:33:34;11.40;;;10.30;;
15340;SDS011;7770;52.158;5.372;2023-04-01T19:36:37;13.17;;;11.87;;
15340;SDS011;7770;52.158;5.372;2023-04-01T19:46:07;13.73;;;12.33;;
15340;SDS011;7770;52.158;5.372;2023-04-01T19:49:06;13.50;;;12.20;;
15340;SDS011;7770;52.158;5.372;2023-04-01T19:52:38;14.57;;;13.17;;
15340;SDS011;7770;52.158;5.372;2023-04-01T19:58:26;14.67;;;13.17;;
15340;SDS011;7770;52.158;5.372;2023-04-01T20:01:27;14.17;;;12.50;;
15340;SDS011;7770;52.158;5.372;2023-04-01T20:04:54;15.87;;;14.23;;
15340;SDS011;7770;52.158;5.372;2023-04-01T20:07:43;17.53;;;15.23;;
15340;SDS011;7770;52.158;5.372;2023-04-01T20:10:46;17.97;;;14.07;;
15340;SDS011;7770;52.158;5.372;2023-04-01T20:20:26;17.03;;;15.33;;
15340;SDS011;7770;52.158;5.372;2023-04-01T20:23:26;17.90;;;15.60;;
15340;SDS011;7770;52.158;5.372;2023-04-01T20:26:35;19.70;;;16.83;;
15340;SDS011;7770;52.158;5.372;2023-04-01T20:32:54;15.83;;;13.90;;
15340;SDS011;7770;52.158;5.372;2023-04-01T20:36:22;15.27;;;13.67;;
15340;SDS011;7770;52.158;5.372;2023-04-01T20:43:14;14.97;;;13.37;;
15340;SDS011;7770;52.158;5.372;2023-04-01T20:46:23;15.07;;;12.73;;
15340;SDS011;7770;52.158;5.372;2023-04-01T20:55:26;13.83;;;12.17;;
15340;SDS011;7770;52.158;5.372;2023-04-01T21:05:26;14.90;;;12.60;;
15340;SDS011;7770;52.158;5.372;2023-04-01T21:15:38;13.97;;;11.33;;
15340;SDS011;7770;52.158;5.372;2023-04-01T21:19:02;14.47;;;12.97;;
15340;SDS011;7770;52.158;5.372;2023-04-01T21:26:00;16.03;;;12.90;;
15340;SDS011;7770;52.158;5.372;2023-04-01T21:36:20;15.00;;;13.40;;
15340;SDS011;7770;52.158;5.372;2023-04-01T21:42:55;15.53;;;13.93;;
15340;SDS011;7770;52.158;5.372;2023-04-01T21:46:07;15.83;;;12.90;;
15340;SDS011;7770;52.158;5.372;2023-04-01T21:56:09;14.07;;;12.57;;
15340;SDS011;7770;52.158;5.372;2023-04-01T22:02:35;15.60;;;13.40;;
15340;SDS011;7770;52.158;5.372;2023-04-01T22:09:07;14.37;;;12.70;;
15340;SDS011;7770;52.158;5.372;2023-04-01T22:12:12;14.97;;;12.97;;
15340;SDS011;7770;52.158;5.372;2023-04-01T22:21:32;17.20;;;14.07;;
15340;SDS011;7770;52.158;5.372;2023-04-01T22:25:02;17.47;;;13.73;;
15340;SDS011;7770;52.158;5.372;2023-04-01T22:28:03;16.67;;;14.10;;
15340;SDS011;7770;52.158;5.372;2023-04-01T22:30:55;17.50;;;14.60;;
15340;SDS011;7770;52.158;5.372;2023-04-01T22:37:10;19.20;;;14.40;;
15340;SDS011;7770;52.158;5.372;2023-04-01T22:49:32;18.93;;;14.93;;
15340;SDS011;7770;52.158;5.372;2023-04-01T22:52:32;18.67;;;15.77;;
15340;SDS011;7770;52.158;5.372;2023-04-01T22:55:27;18.40;;;15.80;;
15340;SDS011;7770;52.158;5.372;2023-04-01T22:58:26;20.33;;;16.43;;
15340;SDS011;7770;52.158;5.372;2023-04-01T23:01:20;18.73;;;15.90;;
15340;SDS011;7770;52.158;5.372;2023-04-01T23:04:12;21.67;;;17.60;;
15340;SDS011;7770;52.158;5.372;2023-04-01T23:13:29;23.60;;;17.13;;
15340;SDS011;7770;52.158;5.372;2023-04-01T23:16:43;20.33;;;16.13;;
15340;SDS011;7770;52.158;5.372;2023-04-01T23:19:52;23.57;;;17.07;;
15340;SDS011;7770;52.158;5.372;2023-04-01T23:25:57;21.33;;;17.20;;
15340;SDS011;7770;52.158;5.372;2023-04-01T23:29:03;22.33;;;17.43;;
15340;SDS011;7770;52.158;5.372;2023-04-01T23:34:51;22.80;;;17.73;;
15340;SDS011;7770;52.158;5.372;2023-04-01T23:37:39;25.57;;;18.10;;
15340;SDS011;7770;52.158;5.372;2023-04-01T23:40:25;23.30;;;17.23;;
15340;SDS011;7770;52.158;5.372;2023-04-01T23:43:15;24.30;;;18.87;;
15340;SDS011;7770;52.158;5.372;2023-04-01T23:46:16;22.57;;;16.70;;
15340;SDS011;7770;52.158;5.372;2023-04-01T23:49:02;24.63;;;18.10;;
15340;SDS011;7770;52.158;5.372;2023-04-01T23:51:55;23.07;;;17.30;;
15340;SDS011;7770;52.158;5.372;2023-04-01T23:54:49;21.33;;;18.13;;
